sensor_id;sensor_type;location;lat;lon;timestamp;P1;durP1;ratioP1;P2;durP2;ratioP2
39822;SDS011;25499;53.958;10.970;2023-04-09T06:22:43;34.30;;;19.42;;
39822;SDS011;25499;53.958;10.970;2023-04-09T06:25:09;32.10;;;19.83;;
39822;SDS011;25499;53.958;10.970;2023-04-09T06:27:34;31.13;;;18.58;;
39822;SDS011;25499;53.958;10.970;2023-04-09T06:30:00;32.03;;;18.08;;
39822;SDS011;25499;53.958;10.970;2023-04-09T06:32:26;31.60;;;17.10;;
39822;SDS011;25499;53.958;10.970;2023-04-09T06:34:51;28.35;;;16.50;;
39822;SDS011;25499;53.958;10.970;2023-04-09T06:37:17;27.50;;;16.55;;
39822;SDS011;25499;53.958;10.970;2023-04-09T06:39:43;28.15;;;16.35;;
39822;SDS011;25499;53.958;10.970;2023-04-09T06:42:09;27.98;;;16.25;;
39822;SDS011;25499;53.958;10.970;2023-04-09T06:44:34;26.60;;;15.45;;
39822;SDS011;25499;53.958;10.970;2023-04-09T06:46:59;25.35;;;14.18;;
39822;SDS011;25499;53.958;10.970;2023-04-09T06:49:29;25.00;;;15.05;;
39822;SDS011;25499;53.958;10.970;2023-04-09T06:51:58;26.05;;;15.50;;
39822;SDS011;25499;53.958;10.970;2023-04-09T06:54:23;25.50;;;15.25;;
39822;SDS011;25499;53.958;10.970;2023-04-09T06:56:52;25.83;;;15.27;;
39822;SDS011;25499;53.958;10.970;2023-04-09T06:59:17;26.15;;;14.88;;
39822;SDS011;25499;53.958;10.970;2023-04-09T07:01:43;21.58;;;13.43;;
39822;SDS011;25499;53.958;10.970;2023-04-09T07:04:08;23.27;;;14.52;;
39822;SDS011;25499;53.958;10.970;2023-04-09T07:06:47;21.42;;;13.25;;
39822;SDS011;25499;53.958;10.970;2023-04-09T07:09:12;20.27;;;12.65;;
39822;SDS011;25499;53.958;10.970;2023-04-09T07:11:37;27.25;;;13.48;;
39822;SDS011;25499;53.958;10.970;2023-04-09T07:14:03;27.33;;;13.95;;
39822;SDS011;25499;53.958;10.970;2023-04-09T07:16:28;23.00;;;12.80;;
39822;SDS011;25499;53.958;10.970;2023-04-09T07:18:55;24.48;;;12.63;;
39822;SDS011;25499;53.958;10.970;2023-04-09T07:21:20;29.73;;;12.95;;
39822;SDS011;25499;53.958;10.970;2023-04-09T07:23:46;26.48;;;13.23;;
39822;SDS011;25499;53.958;10.970;2023-04-09T07:28:41;24.55;;;14.15;;
39822;SDS011;25499;53.958;10.970;2023-04-09T07:31:06;38.75;;;14.18;;
39822;SDS011;25499;53.958;10.970;2023-04-09T07:33:32;25.95;;;13.43;;
39822;SDS011;25499;53.958;10.970;2023-04-09T07:35:57;26.50;;;13.38;;
39822;SDS011;25499;53.958;10.970;2023-04-09T07:38:22;28.17;;;14.60;;
39822;SDS011;25499;53.958;10.970;2023-04-09T07:40:48;26.13;;;14.13;;
39822;SDS011;25499;53.958;10.970;2023-04-09T07:45:43;24.10;;;12.40;;
39822;SDS011;25499;53.958;10.970;2023-04-09T07:48:09;28.13;;;13.63;;
39822;SDS011;25499;53.958;10.970;2023-04-09T07:50:36;21.60;;;12.00;;
39822;SDS011;25499;53.958;10.970;2023-04-09T07:53:02;20.38;;;11.57;;
39822;SDS011;25499;53.958;10.970;2023-04-09T07:55:29;24.17;;;12.00;;
39822;SDS011;25499;53.958;10.970;2023-04-09T07:57:55;17.80;;;10.77;;
39822;SDS011;25499;53.958;10.970;2023-04-09T08:00:21;20.10;;;11.30;;
39822;SDS011;25499;53.958;10.970;2023-04-09T08:02:46;20.10;;;11.02;;
39822;SDS011;25499;53.958;10.970;2023-04-09T08:05:12;19.25;;;10.85;;
39822;SDS011;25499;53.958;10.970;2023-04-09T08:07:38;21.98;;;11.48;;
39822;SDS011;25499;53.958;10.970;2023-04-09T08:10:04;18.02;;;11.40;;
39822;SDS011;25499;53.958;10.970;2023-04-09T08:12:33;21.08;;;10.63;;
39822;SDS011;25499;53.958;10.970;2023-04-09T08:14:59;21.35;;;11.57;;
39822;SDS011;25499;53.958;10.970;2023-04-09T08:17:27;18.40;;;11.18;;
39822;SDS011;25499;53.958;10.970;2023-04-09T08:22:24;20.05;;;11.27;;
39822;SDS011;25499;53.958;10.970;2023-04-09T08:24:52;20.13;;;11.57;;
39822;SDS011;25499;53.958;10.970;2023-04-09T08:27:19;18.38;;;10.93;;
39822;SDS011;25499;53.958;10.970;2023-04-09T08:29:46;21.75;;;11.63;;
39822;SDS011;25499;53.958;10.970;2023-04-09T08:32:11;22.70;;;12.00;;
39822;SDS011;25499;53.958;10.970;2023-04-09T08:34:37;20.48;;;11.55;;
39822;SDS011;25499;53.958;10.970;2023-04-09T08:37:02;21.27;;;11.23;;
39822;SDS011;25499;53.958;10.970;2023-04-09T08:39:31;19.92;;;12.10;;
39822;SDS011;25499;53.958;10.970;2023-04-09T08:41:59;23.58;;;11.90;;
39822;SDS011;25499;53.958;10.970;2023-04-09T08:44:26;23.05;;;12.93;;
39822;SDS011;25499;53.958;10.970;2023-04-09T08:46:52;19.42;;;11.15;;
39822;SDS011;25499;53.958;10.970;2023-04-09T08:51:48;23.17;;;11.98;;
39822;SDS011;25499;53.958;10.970;2023-04-09T08:54:14;19.30;;;10.98;;
39822;SDS011;25499;53.958;10.970;2023-04-09T09:01:42;19.52;;;11.40;;
39822;SDS011;25499;53.958;10.970;2023-04-09T09:04:10;23.23;;;12.60;;
39822;SDS011;25499;53.958;10.970;2023-04-09T09:06:38;21.23;;;11.95;;
39822;SDS011;25499;53.958;10.970;2023-04-09T09:09:08;19.65;;;11.65;;
39822;SDS011;25499;53.958;10.970;2023-04-09T09:11:38;19.33;;;11.60;;
39822;SDS011;25499;53.958;10.970;2023-04-09T09:14:11;21.77;;;11.93;;
39822;SDS011;25499;53.958;10.970;2023-04-09T09:16:42;20.75;;;11.25;;
39822;SDS011;25499;53.958;10.970;2023-04-09T09:19:28;25.05;;;11.85;;
39822;SDS011;25499;53.958;10.970;2023-04-09T09:22:04;20.88;;;11.90;;
39822;SDS011;25499;53.958;10.970;2023-04-09T09:24:32;20.83;;;11.73;;
39822;SDS011;25499;53.958;10.970;2023-04-09T09:27:01;16.95;;;10.85;;
39822;SDS011;25499;53.958;10.970;2023-04-09T09:29:27;21.90;;;11.35;;
39822;SDS011;25499;53.958;10.970;2023-04-09T09:31:53;20.85;;;11.75;;
39822;SDS011;25499;53.958;10.970;2023-04-09T09:34:21;19.92;;;11.32;;
39822;SDS011;25499;53.958;10.970;2023-04-09T09:36:49;22.05;;;11.05;;
39822;SDS011;25499;53.958;10.970;2023-04-09T09:39:15;20.15;;;11.40;;
39822;SDS011;25499;53.958;10.970;2023-04-09T09:46:59;20.00;;;11.43;;
39822;SDS011;25499;53.958;10.970;2023-04-09T09:49:28;20.55;;;10.77;;
39822;SDS011;25499;53.958;10.970;2023-04-09T09:51:55;22.75;;;11.13;;
39822;SDS011;25499;53.958;10.970;2023-04-09T09:54:24;20.42;;;11.10;;
39822;SDS011;25499;53.958;10.970;2023-04-09T09:56:53;19.63;;;11.45;;
39822;SDS011;25499;53.958;10.970;2023-04-09T09:59:22;21.92;;;11.65;;
39822;SDS011;25499;53.958;10.970;2023-04-09T10:01:55;22.88;;;12.88;;
39822;SDS011;25499;53.958;10.970;2023-04-09T10:04:27;23.52;;;11.60;;
39822;SDS011;25499;53.958;10.970;2023-04-09T10:06:55;28.42;;;11.95;;
39822;SDS011;25499;53.958;10.970;2023-04-09T10:09:22;24.95;;;11.60;;
39822;SDS011;25499;53.958;10.970;2023-04-09T10:11:52;22.00;;;12.18;;
39822;SDS011;25499;53.958;10.970;2023-04-09T10:14:22;21.95;;;11.82;;
39822;SDS011;25499;53.958;10.970;2023-04-09T10:16:48;19.90;;;12.13;;
39822;SDS011;25499;53.958;10.970;2023-04-09T10:22:04;24.73;;;12.35;;
39822;SDS011;25499;53.958;10.970;2023-04-09T10:24:40;19.25;;;11.52;;
39822;SDS011;25499;53.958;10.970;2023-04-09T10:29:47;19.00;;;11.68;;
39822;SDS011;25499;53.958;10.970;2023-04-09T10:34:47;23.13;;;12.13;;
39822;SDS011;25499;53.958;10.970;2023-04-09T10:37:22;24.80;;;12.25;;
39822;SDS011;25499;53.958;10.970;2023-04-09T10:39:49;19.63;;;11.98;;
39822;SDS011;25499;53.958;10.970;2023-04-09T10:45:07;22.10;;;12.75;;
39822;SDS011;25499;53.958;10.970;2023-04-09T10:47:36;21.52;;;12.13;;
39822;SDS011;25499;53.958;10.970;2023-04-09T10:52:45;24.02;;;11.88;;
39822;SDS011;25499;53.958;10.970;2023-04-09T10:58:04;24.73;;;12.23;;
39822;SDS011;25499;53.958;10.970;2023-04-09T11:00:36;22.77;;;13.10;;
39822;SDS011;25499;53.958;10.970;2023-04-09T11:05:37;25.05;;;12.77;;
39822;SDS011;25499;53.958;10.970;2023-04-09T11:08:09;26.77;;;12.82;;
39822;SDS011;25499;53.958;10.970;2023-04-09T11:10:36;20.52;;;11.45;;
39822;SDS011;25499;53.958;10.970;2023-04-09T11:13:10;26.85;;;12.05;;
39822;SDS011;25499;53.958;10.970;2023-04-09T11:15:43;22.27;;;12.05;;
39822;SDS011;25499;53.958;10.970;2023-04-09T11:18:13;20.73;;;12.60;;
39822;SDS011;25499;53.958;10.970;2023-04-09T11:20:46;21.38;;;12.48;;
39822;SDS011;25499;53.958;10.970;2023-04-09T11:23:12;26.48;;;13.15;;
39822;SDS011;25499;53.958;10.970;2023-04-09T11:25:39;53.42;;;25.05;;
39822;SDS011;25499;53.958;10.970;2023-04-09T11:28:05;30.15;;;17.33;;
39822;SDS011;25499;53.958;10.970;2023-04-09T11:30:32;32.85;;;15.48;;
39822;SDS011;25499;53.958;10.970;2023-04-09T11:33:00;27.90;;;13.63;;
39822;SDS011;25499;53.958;10.970;2023-04-09T11:35:26;20.98;;;12.55;;
39822;SDS011;25499;53.958;10.970;2023-04-09T11:37:51;18.95;;;12.38;;
39822;SDS011;25499;53.958;10.970;2023-04-09T11:42:49;21.02;;;12.68;;
39822;SDS011;25499;53.958;10.970;2023-04-09T11:45:16;23.20;;;13.82;;
39822;SDS011;25499;53.958;10.970;2023-04-09T11:47:43;25.05;;;13.60;;
39822;SDS011;25499;53.958;10.970;2023-04-09T11:50:10;28.65;;;13.93;;
39822;SDS011;25499;53.958;10.970;2023-04-09T11:52:37;29.48;;;15.05;;
39822;SDS011;25499;53.958;10.970;2023-04-09T11:55:04;29.38;;;15.77;;
39822;SDS011;25499;53.958;10.970;2023-04-09T12:00:14;27.60;;;15.70;;
39822;SDS011;25499;53.958;10.970;2023-04-09T12:02:43;24.77;;;14.95;;
39822;SDS011;25499;53.958;10.970;2023-04-09T12:05:11;31.08;;;16.98;;
39822;SDS011;25499;53.958;10.970;2023-04-09T12:07:44;27.70;;;17.23;;
39822;SDS011;25499;53.958;10.970;2023-04-09T12:10:10;29.55;;;16.77;;
39822;SDS011;25499;53.958;10.970;2023-04-09T12:12:42;28.88;;;17.02;;
39822;SDS011;25499;53.958;10.970;2023-04-09T12:15:10;32.55;;;17.33;;
39822;SDS011;25499;53.958;10.970;2023-04-09T12:17:56;33.47;;;17.08;;
39822;SDS011;25499;53.958;10.970;2023-04-09T12:20:38;34.60;;;18.38;;
39822;SDS011;25499;53.958;10.970;2023-04-09T12:23:05;32.95;;;17.88;;
39822;SDS011;25499;53.958;10.970;2023-04-09T12:25:35;30.80;;;17.52;;
39822;SDS011;25499;53.958;10.970;2023-04-09T12:28:09;31.20;;;18.75;;
39822;SDS011;25499;53.958;10.970;2023-04-09T12:30:37;34.65;;;19.00;;
39822;SDS011;25499;53.958;10.970;2023-04-09T12:33:09;37.42;;;19.65;;
39822;SDS011;25499;53.958;10.970;2023-04-09T12:35:35;34.53;;;19.65;;
39822;SDS011;25499;53.958;10.970;2023-04-09T12:38:03;42.00;;;20.55;;
39822;SDS011;25499;53.958;10.970;2023-04-09T12:40:29;39.00;;;20.52;;
39822;SDS011;25499;53.958;10.970;2023-04-09T12:42:55;34.80;;;20.15;;
39822;SDS011;25499;53.958;10.970;2023-04-09T12:45:27;36.55;;;19.40;;
39822;SDS011;25499;53.958;10.970;2023-04-09T12:47:54;39.45;;;19.48;;
39822;SDS011;25499;53.958;10.970;2023-04-09T12:50:22;38.95;;;19.25;;
39822;SDS011;25499;53.958;10.970;2023-04-09T12:52:48;32.53;;;18.33;;
39822;SDS011;25499;53.958;10.970;2023-04-09T12:55:15;34.45;;;19.17;;
39822;SDS011;25499;53.958;10.970;2023-04-09T12:57:42;32.72;;;19.08;;
39822;SDS011;25499;53.958;10.970;2023-04-09T13:00:10;37.50;;;19.33;;
39822;SDS011;25499;53.958;10.970;2023-04-09T13:05:06;35.28;;;18.23;;
39822;SDS011;25499;53.958;10.970;2023-04-09T13:07:34;34.83;;;17.75;;
39822;SDS011;25499;53.958;10.970;2023-04-09T13:10:00;40.00;;;19.50;;
39822;SDS011;25499;53.958;10.970;2023-04-09T13:12:25;35.17;;;20.10;;
39822;SDS011;25499;53.958;10.970;2023-04-09T13:14:52;40.90;;;21.05;;
39822;SDS011;25499;53.958;10.970;2023-04-09T13:17:19;38.90;;;20.65;;
39822;SDS011;25499;53.958;10.970;2023-04-09T13:19:44;37.97;;;21.08;;
39822;SDS011;25499;53.958;10.970;2023-04-09T13:22:10;38.63;;;21.40;;
39822;SDS011;25499;53.958;10.970;2023-04-09T13:24:42;40.30;;;21.58;;
39822;SDS011;25499;53.958;10.970;2023-04-09T13:27:07;42.05;;;21.40;;
39822;SDS011;25499;53.958;10.970;2023-04-09T13:29:35;41.60;;;20.98;;
39822;SDS011;25499;53.958;10.970;2023-04-09T13:32:01;40.58;;;21.10;;
39822;SDS011;25499;53.958;10.970;2023-04-09T13:34:30;36.17;;;19.67;;
39822;SDS011;25499;53.958;10.970;2023-04-09T13:36:58;40.80;;;20.92;;
39822;SDS011;25499;53.958;10.970;2023-04-09T13:39:24;36.65;;;20.50;;
39822;SDS011;25499;53.958;10.970;2023-04-09T13:42:02;40.95;;;20.38;;
39822;SDS011;25499;53.958;10.970;2023-04-09T13:44:27;42.13;;;20.40;;
39822;SDS011;25499;53.958;10.970;2023-04-09T13:46:55;43.20;;;20.88;;
39822;SDS011;25499;53.958;10.970;2023-04-09T13:49:23;38.08;;;19.95;;
39822;SDS011;25499;53.958;10.970;2023-04-09T13:52:06;39.17;;;20.48;;
39822;SDS011;25499;53.958;10.970;2023-04-09T13:54:35;39.60;;;20.67;;
39822;SDS011;25499;53.958;10.970;2023-04-09T13:57:04;36.25;;;20.48;;
39822;SDS011;25499;53.958;10.970;2023-04-09T13:59:30;36.95;;;20.65;;
39822;SDS011;25499;53.958;10.970;2023-04-09T14:01:56;40.85;;;21.85;;
39822;SDS011;25499;53.958;10.970;2023-04-09T14:06:51;39.42;;;21.10;;
39822;SDS011;25499;53.958;10.970;2023-04-09T14:09:16;37.65;;;21.50;;
39822;SDS011;25499;53.958;10.970;2023-04-09T14:14:11;39.72;;;20.40;;
39822;SDS011;25499;53.958;10.970;2023-04-09T14:16:38;33.38;;;19.88;;
39822;SDS011;25499;53.958;10.970;2023-04-09T14:19:04;36.60;;;20.60;;
39822;SDS011;25499;53.958;10.970;2023-04-09T14:21:30;32.65;;;19.75;;
39822;SDS011;25499;53.958;10.970;2023-04-09T14:23:56;39.83;;;20.35;;
39822;SDS011;25499;53.958;10.970;2023-04-09T14:26:21;32.63;;;19.15;;
39822;SDS011;25499;53.958;10.970;2023-04-09T14:28:47;33.83;;;19.05;;
39822;SDS011;25499;53.958;10.970;2023-04-09T14:31:13;38.00;;;19.63;;
39822;SDS011;25499;53.958;10.970;2023-04-09T14:33:39;35.53;;;20.35;;
39822;SDS011;25499;53.958;10.970;2023-04-09T14:36:14;35.42;;;20.58;;
39822;SDS011;25499;53.958;10.970;2023-04-09T14:38:40;31.95;;;19.08;;
39822;SDS011;25499;53.958;10.970;2023-04-09T14:41:15;36.58;;;20.60;;
39822;SDS011;25499;53.958;10.970;2023-04-09T14:43:40;42.05;;;20.42;;
39822;SDS011;25499;53.958;10.970;2023-04-09T14:46:06;38.33;;;20.30;;
39822;SDS011;25499;53.958;10.970;2023-04-09T14:48:38;36.25;;;18.95;;
39822;SDS011;25499;53.958;10.970;2023-04-09T14:51:09;33.67;;;18.20;;
39822;SDS011;25499;53.958;10.970;2023-04-09T14:53:35;35.28;;;17.77;;
39822;SDS011;25499;53.958;10.970;2023-04-09T14:56:04;34.20;;;18.52;;
39822;SDS011;25499;53.958;10.970;2023-04-09T14:58:39;34.10;;;18.77;;
39822;SDS011;25499;53.958;10.970;2023-04-09T15:01:05;31.83;;;18.10;;
39822;SDS011;25499;53.958;10.970;2023-04-09T15:03:30;29.50;;;16.73;;
39822;SDS011;25499;53.958;10.970;2023-04-09T15:05:56;30.95;;;15.88;;
39822;SDS011;25499;53.958;10.970;2023-04-09T15:08:30;30.13;;;15.90;;
39822;SDS011;25499;53.958;10.970;2023-04-09T15:10:55;28.10;;;16.20;;
39822;SDS011;25499;53.958;10.970;2023-04-09T15:13:21;26.90;;;14.38;;
39822;SDS011;25499;53.958;10.970;2023-04-09T15:15:46;23.83;;;12.32;;
39822;SDS011;25499;53.958;10.970;2023-04-09T15:20:41;21.38;;;13.50;;
39822;SDS011;25499;53.958;10.970;2023-04-09T15:23:10;27.58;;;15.07;;
39822;SDS011;25499;53.958;10.970;2023-04-09T15:25:36;31.58;;;16.85;;
39822;SDS011;25499;53.958;10.970;2023-04-09T15:28:01;28.80;;;15.65;;
39822;SDS011;25499;53.958;10.970;2023-04-09T15:30:28;25.15;;;13.82;;
39822;SDS011;25499;53.958;10.970;2023-04-09T15:32:53;25.20;;;13.50;;
39822;SDS011;25499;53.958;10.970;2023-04-09T15:35:19;26.35;;;14.10;;
39822;SDS011;25499;53.958;10.970;2023-04-09T15:37:49;25.47;;;13.70;;
39822;SDS011;25499;53.958;10.970;2023-04-09T15:40:15;22.55;;;13.93;;
39822;SDS011;25499;53.958;10.970;2023-04-09T15:42:43;24.95;;;14.35;;
39822;SDS011;25499;53.958;10.970;2023-04-09T15:45:09;27.25;;;14.13;;
39822;SDS011;25499;53.958;10.970;2023-04-09T15:47:34;25.88;;;14.70;;
39822;SDS011;25499;53.958;10.970;2023-04-09T15:50:00;28.02;;;13.95;;
39822;SDS011;25499;53.958;10.970;2023-04-09T15:52:25;25.15;;;14.95;;
39822;SDS011;25499;53.958;10.970;2023-04-09T15:54:53;26.58;;;14.38;;
39822;SDS011;25499;53.958;10.970;2023-04-09T15:57:18;28.77;;;14.60;;
39822;SDS011;25499;53.958;10.970;2023-04-09T15:59:45;34.65;;;16.15;;
39822;SDS011;25499;53.958;10.970;2023-04-09T16:02:26;30.88;;;14.73;;
39822;SDS011;25499;53.958;10.970;2023-04-09T16:04:52;24.80;;;14.68;;
39822;SDS011;25499;53.958;10.970;2023-04-09T16:07:19;22.60;;;13.93;;
39822;SDS011;25499;53.958;10.970;2023-04-09T16:09:44;27.67;;;15.07;;
39822;SDS011;25499;53.958;10.970;2023-04-09T16:12:10;31.33;;;16.15;;
39822;SDS011;25499;53.958;10.970;2023-04-09T16:14:36;28.88;;;16.05;;
39822;SDS011;25499;53.958;10.970;2023-04-09T16:17:01;32.05;;;16.00;;
39822;SDS011;25499;53.958;10.970;2023-04-09T16:19:29;27.90;;;15.55;;
39822;SDS011;25499;53.958;10.970;2023-04-09T16:21:55;29.20;;;13.80;;
39822;SDS011;25499;53.958;10.970;2023-04-09T16:24:20;28.05;;;14.65;;
39822;SDS011;25499;53.958;10.970;2023-04-09T16:26:47;28.25;;;14.45;;
39822;SDS011;25499;53.958;10.970;2023-04-09T16:29:12;29.95;;;15.32;;
39822;SDS011;25499;53.958;10.970;2023-04-09T16:31:40;31.00;;;14.32;;
39822;SDS011;25499;53.958;10.970;2023-04-09T16:34:08;28.55;;;14.63;;
39822;SDS011;25499;53.958;10.970;2023-04-09T16:36:34;29.77;;;15.27;;
39822;SDS011;25499;53.958;10.970;2023-04-09T16:39:05;30.90;;;15.07;;
39822;SDS011;25499;53.958;10.970;2023-04-09T16:41:30;30.15;;;16.02;;
39822;SDS011;25499;53.958;10.970;2023-04-09T16:43:57;33.45;;;17.38;;
39822;SDS011;25499;53.958;10.970;2023-04-09T16:46:23;32.30;;;16.33;;
39822;SDS011;25499;53.958;10.970;2023-04-09T16:48:48;30.45;;;15.77;;
39822;SDS011;25499;53.958;10.970;2023-04-09T16:51:14;29.23;;;15.05;;
39822;SDS011;25499;53.958;10.970;2023-04-09T16:53:39;29.95;;;17.15;;
39822;SDS011;25499;53.958;10.970;2023-04-09T16:56:05;29.42;;;15.10;;
39822;SDS011;25499;53.958;10.970;2023-04-09T16:58:33;28.77;;;15.63;;
39822;SDS011;25499;53.958;10.970;2023-04-09T17:00:58;29.33;;;15.50;;
39822;SDS011;25499;53.958;10.970;2023-04-09T17:05:54;28.30;;;14.90;;
39822;SDS011;25499;53.958;10.970;2023-04-09T17:08:24;31.77;;;14.70;;
39822;SDS011;25499;53.958;10.970;2023-04-09T17:10:50;30.52;;;15.15;;
39822;SDS011;25499;53.958;10.970;2023-04-09T17:13:16;30.80;;;15.60;;
39822;SDS011;25499;53.958;10.970;2023-04-09T17:18:11;28.67;;;14.18;;
39822;SDS011;25499;53.958;10.970;2023-04-09T17:20:36;30.70;;;14.30;;
39822;SDS011;25499;53.958;10.970;2023-04-09T17:23:02;30.40;;;13.88;;
39822;SDS011;25499;53.958;10.970;2023-04-09T17:25:33;28.70;;;14.75;;
39822;SDS011;25499;53.958;10.970;2023-04-09T17:27:59;29.55;;;14.73;;
39822;SDS011;25499;53.958;10.970;2023-04-09T17:30:25;29.52;;;15.00;;
39822;SDS011;25499;53.958;10.970;2023-04-09T17:35:21;26.73;;;15.30;;
39822;SDS011;25499;53.958;10.970;2023-04-09T17:37:47;25.55;;;14.57;;
39822;SDS011;25499;53.958;10.970;2023-04-09T17:40:13;31.85;;;15.88;;
39822;SDS011;25499;53.958;10.970;2023-04-09T17:42:39;28.35;;;15.75;;
39822;SDS011;25499;53.958;10.970;2023-04-09T17:45:18;30.85;;;16.10;;
39822;SDS011;25499;53.958;10.970;2023-04-09T17:47:44;29.63;;;16.58;;
39822;SDS011;25499;53.958;10.970;2023-04-09T17:52:45;33.60;;;17.48;;
39822;SDS011;25499;53.958;10.970;2023-04-09T17:55:10;32.28;;;18.25;;
39822;SDS011;25499;53.958;10.970;2023-04-09T17:57:37;31.35;;;17.50;;
39822;SDS011;25499;53.958;10.970;2023-04-09T18:00:03;35.83;;;17.83;;
39822;SDS011;25499;53.958;10.970;2023-04-09T18:02:30;29.13;;;16.25;;
39822;SDS011;25499;53.958;10.970;2023-04-09T18:04:59;29.40;;;16.60;;
39822;SDS011;25499;53.958;10.970;2023-04-09T18:07:25;31.23;;;16.60;;
39822;SDS011;25499;53.958;10.970;2023-04-09T18:09:55;27.60;;;15.73;;
39822;SDS011;25499;53.958;10.970;2023-04-09T18:12:20;28.98;;;15.15;;
39822;SDS011;25499;53.958;10.970;2023-04-09T18:14:46;30.92;;;17.45;;
39822;SDS011;25499;53.958;10.970;2023-04-09T18:17:14;33.83;;;19.75;;
39822;SDS011;25499;53.958;10.970;2023-04-09T18:19:40;28.55;;;14.70;;
39822;SDS011;25499;53.958;10.970;2023-04-09T18:22:08;28.48;;;15.15;;
39822;SDS011;25499;53.958;10.970;2023-04-09T18:24:33;29.65;;;15.68;;
39822;SDS011;25499;53.958;10.970;2023-04-09T18:26:59;36.70;;;22.52;;
39822;SDS011;25499;53.958;10.970;2023-04-09T18:29:28;37.13;;;21.60;;
39822;SDS011;25499;53.958;10.970;2023-04-09T18:31:58;33.97;;;18.80;;
39822;SDS011;25499;53.958;10.970;2023-04-09T18:34:24;30.30;;;17.85;;
39822;SDS011;25499;53.958;10.970;2023-04-09T18:36:53;27.70;;;15.52;;
39822;SDS011;25499;53.958;10.970;2023-04-09T18:39:20;23.17;;;13.85;;
39822;SDS011;25499;53.958;10.970;2023-04-09T18:41:46;22.95;;;13.52;;
39822;SDS011;25499;53.958;10.970;2023-04-09T18:44:13;24.90;;;14.45;;
39822;SDS011;25499;53.958;10.970;2023-04-09T18:46:40;26.73;;;14.55;;
39822;SDS011;25499;53.958;10.970;2023-04-09T18:49:06;25.02;;;14.30;;
39822;SDS011;25499;53.958;10.970;2023-04-09T18:51:31;24.88;;;13.18;;
39822;SDS011;25499;53.958;10.970;2023-04-09T18:53:59;24.08;;;14.52;;
39822;SDS011;25499;53.958;10.970;2023-04-09T18:56:25;24.27;;;13.35;;
39822;SDS011;25499;53.958;10.970;2023-04-09T19:01:23;27.40;;;14.85;;
39822;SDS011;25499;53.958;10.970;2023-04-09T19:03:49;31.33;;;15.48;;
39822;SDS011;25499;53.958;10.970;2023-04-09T19:06:16;27.70;;;16.60;;
39822;SDS011;25499;53.958;10.970;2023-04-09T19:08:43;25.17;;;15.73;;
39822;SDS011;25499;53.958;10.970;2023-04-09T19:11:09;25.92;;;14.98;;
39822;SDS011;25499;53.958;10.970;2023-04-09T19:13:38;28.60;;;15.90;;
39822;SDS011;25499;53.958;10.970;2023-04-09T19:16:04;32.63;;;16.20;;
39822;SDS011;25499;53.958;10.970;2023-04-09T19:18:43;31.15;;;17.92;;
39822;SDS011;25499;53.958;10.970;2023-04-09T19:21:08;35.25;;;18.88;;
39822;SDS011;25499;53.958;10.970;2023-04-09T19:23:34;34.28;;;17.52;;
39822;SDS011;25499;53.958;10.970;2023-04-09T19:26:00;35.80;;;18.95;;
39822;SDS011;25499;53.958;10.970;2023-04-09T19:28:28;39.67;;;19.15;;
39822;SDS011;25499;53.958;10.970;2023-04-09T19:30:54;36.38;;;18.52;;
39822;SDS011;25499;53.958;10.970;2023-04-09T19:33:23;34.00;;;19.27;;
39822;SDS011;25499;53.958;10.970;2023-04-09T19:35:51;35.22;;;18.50;;
39822;SDS011;25499;53.958;10.970;2023-04-09T19:38:18;42.15;;;19.42;;
39822;SDS011;25499;53.958;10.970;2023-04-09T19:40:47;37.67;;;19.63;;
39822;SDS011;25499;53.958;10.970;2023-04-09T19:43:13;35.13;;;19.42;;
39822;SDS011;25499;53.958;10.970;2023-04-09T19:45:54;34.95;;;19.33;;
39822;SDS011;25499;53.958;10.970;2023-04-09T19:48:21;36.63;;;20.23;;
39822;SDS011;25499;53.958;10.970;2023-04-09T19:50:46;37.95;;;19.92;;
39822;SDS011;25499;53.958;10.970;2023-04-09T19:53:13;39.58;;;20.90;;
39822;SDS011;25499;53.958;10.970;2023-04-09T19:55:38;39.03;;;21.33;;
39822;SDS011;25499;53.958;10.970;2023-04-09T19:58:04;43.25;;;21.33;;
39822;SDS011;25499;53.958;10.970;2023-04-09T20:00:31;36.90;;;20.50;;
39822;SDS011;25499;53.958;10.970;2023-04-09T20:02:57;33.35;;;18.50;;
39822;SDS011;25499;53.958;10.970;2023-04-09T20:05:23;38.20;;;20.90;;
39822;SDS011;25499;53.958;10.970;2023-04-09T20:07:49;37.38;;;20.83;;
39822;SDS011;25499;53.958;10.970;2023-04-09T20:10:16;33.30;;;18.20;;
39822;SDS011;25499;53.958;10.970;2023-04-09T20:12:49;44.90;;;21.83;;
39822;SDS011;25499;53.958;10.970;2023-04-09T20:15:15;40.80;;;19.50;;
39822;SDS011;25499;53.958;10.970;2023-04-09T20:17:43;41.95;;;19.60;;
39822;SDS011;25499;53.958;10.970;2023-04-09T20:20:10;40.40;;;20.40;;
39822;SDS011;25499;53.958;10.970;2023-04-09T20:22:39;40.42;;;20.88;;
39822;SDS011;25499;53.958;10.970;2023-04-09T20:25:08;40.90;;;20.42;;
39822;SDS011;25499;53.958;10.970;2023-04-09T20:27:37;41.92;;;21.15;;
39822;SDS011;25499;53.958;10.970;2023-04-09T20:30:03;41.85;;;21.90;;
39822;SDS011;25499;53.958;10.970;2023-04-09T20:32:30;45.38;;;22.17;;
39822;SDS011;25499;53.958;10.970;2023-04-09T20:34:56;46.65;;;24.10;;
39822;SDS011;25499;53.958;10.970;2023-04-09T20:37:21;41.05;;;23.00;;
39822;SDS011;25499;53.958;10.970;2023-04-09T20:39:48;73.10;;;33.95;;
39822;SDS011;25499;53.958;10.970;2023-04-09T20:42:13;72.35;;;32.78;;
39822;SDS011;25499;53.958;10.970;2023-04-09T20:44:42;69.47;;;32.63;;
